Raymond, Arkansas
Current Conditions -  °F | °C
As of 7:55 PM on Monday 20 Oct 2014 (Local Time) from KSGT Reporting Station
Clear Clear  
Wind Chill: 63°   Ceiling: Unl
Heat Index: 63°   Visibility: 6mi
Dew Point: 54°   Wind: 5mph
Humidity: 72%   Direction: 270°W
Pressure: 30.04"   Gusts: NA
Location:  34.5919°N, 91.1409°W
Report Text: KSGT 210055Z AUTO 27004KT 6SM CLR 17/12 A3004 RMK AO1
Loading
Personal Weather Stations






























Interactive Weather Map
Tropical Storm Tracking
New forecast layout! Learn more

10-Day Weather Forecast

Advertisements
Track Severe Weather on mobile